sensor_id;sensor_type;location;lat;lon;timestamp;P1;durP1;ratioP1;P2;durP2;ratioP2
20445;SDS011;10382;49.140;9.234;2024-03-02T00:02:14;25.33;;;16.13;;
20445;SDS011;10382;49.140;9.234;2024-03-02T00:04:43;24.03;;;15.43;;
20445;SDS011;10382;49.140;9.234;2024-03-02T00:07:10;27.60;;;17.57;;
20445;SDS011;10382;49.140;9.234;2024-03-02T00:09:40;29.67;;;18.03;;
20445;SDS011;10382;49.140;9.234;2024-03-02T00:12:07;25.50;;;16.40;;
20445;SDS011;10382;49.140;9.234;2024-03-02T00:14:37;38.63;;;17.33;;
20445;SDS011;10382;49.140;9.234;2024-03-02T00:17:11;27.63;;;17.20;;
20445;SDS011;10382;49.140;9.234;2024-03-02T00:19:48;23.87;;;15.80;;
20445;SDS011;10382;49.140;9.234;2024-03-02T00:22:15;29.47;;;18.23;;
20445;SDS011;10382;49.140;9.234;2024-03-02T00:24:42;31.47;;;16.93;;
20445;SDS011;10382;49.140;9.234;2024-03-02T00:27:09;31.40;;;16.73;;
20445;SDS011;10382;49.140;9.234;2024-03-02T00:29:40;35.23;;;17.83;;
20445;SDS011;10382;49.140;9.234;2024-03-02T00:32:09;35.50;;;18.90;;
20445;SDS011;10382;49.140;9.234;2024-03-02T00:34:39;31.93;;;18.90;;
20445;SDS011;10382;49.140;9.234;2024-03-02T00:37:08;28.43;;;17.90;;
20445;SDS011;10382;49.140;9.234;2024-03-02T00:39:36;33.60;;;18.60;;
20445;SDS011;10382;49.140;9.234;2024-03-02T00:42:03;36.37;;;17.40;;
20445;SDS011;10382;49.140;9.234;2024-03-02T00:44:30;26.90;;;14.33;;
20445;SDS011;10382;49.140;9.234;2024-03-02T00:47:00;29.70;;;16.20;;
20445;SDS011;10382;49.140;9.234;2024-03-02T00:49:28;31.80;;;18.17;;
20445;SDS011;10382;49.140;9.234;2024-03-02T00:51:55;34.10;;;19.17;;
20445;SDS011;10382;49.140;9.234;2024-03-02T00:54:25;33.23;;;17.40;;
20445;SDS011;10382;49.140;9.234;2024-03-02T00:56:53;26.33;;;15.80;;
20445;SDS011;10382;49.140;9.234;2024-03-02T00:59:21;36.70;;;16.60;;
20445;SDS011;10382;49.140;9.234;2024-03-02T01:01:48;29.50;;;15.53;;
20445;SDS011;10382;49.140;9.234;2024-03-02T01:04:15;25.73;;;15.37;;
20445;SDS011;10382;49.140;9.234;2024-03-02T01:06:42;24.73;;;14.90;;
20445;SDS011;10382;49.140;9.234;2024-03-02T01:09:09;25.23;;;14.67;;
20445;SDS011;10382;49.140;9.234;2024-03-02T01:11:39;26.73;;;16.80;;
20445;SDS011;10382;49.140;9.234;2024-03-02T01:14:06;26.00;;;15.47;;
20445;SDS011;10382;49.140;9.234;2024-03-02T01:16:33;29.77;;;16.67;;
20445;SDS011;10382;49.140;9.234;2024-03-02T01:19:00;23.80;;;14.67;;
20445;SDS011;10382;49.140;9.234;2024-03-02T01:21:27;24.13;;;15.40;;
20445;SDS011;10382;49.140;9.234;2024-03-02T01:23:54;23.60;;;12.13;;
20445;SDS011;10382;49.140;9.234;2024-03-02T01:26:20;24.57;;;13.93;;
20445;SDS011;10382;49.140;9.234;2024-03-02T01:28:49;19.60;;;13.03;;
20445;SDS011;10382;49.140;9.234;2024-03-02T01:31:15;18.93;;;11.40;;
20445;SDS011;10382;49.140;9.234;2024-03-02T01:33:42;14.33;;;10.20;;
20445;SDS011;10382;49.140;9.234;2024-03-02T01:36:09;15.70;;;10.73;;
20445;SDS011;10382;49.140;9.234;2024-03-02T01:38:36;19.17;;;11.23;;
20445;SDS011;10382;49.140;9.234;2024-03-02T01:41:03;16.83;;;11.10;;
20445;SDS011;10382;49.140;9.234;2024-03-02T01:43:29;17.00;;;10.70;;
20445;SDS011;10382;49.140;9.234;2024-03-02T01:45:58;15.57;;;11.00;;
20445;SDS011;10382;49.140;9.234;2024-03-02T01:48:24;17.87;;;10.87;;
20445;SDS011;10382;49.140;9.234;2024-03-02T01:50:51;18.07;;;11.77;;
20445;SDS011;10382;49.140;9.234;2024-03-02T01:53:18;18.40;;;10.87;;
20445;SDS011;10382;49.140;9.234;2024-03-02T01:55:45;15.93;;;10.97;;
20445;SDS011;10382;49.140;9.234;2024-03-02T01:58:12;16.30;;;11.43;;
20445;SDS011;10382;49.140;9.234;2024-03-02T02:00:39;20.70;;;10.87;;
20445;SDS011;10382;49.140;9.234;2024-03-02T02:03:07;18.77;;;11.60;;
20445;SDS011;10382;49.140;9.234;2024-03-02T02:05:34;16.37;;;10.73;;
20445;SDS011;10382;49.140;9.234;2024-03-02T02:08:01;17.60;;;11.77;;
20445;SDS011;10382;49.140;9.234;2024-03-02T02:10:28;16.37;;;11.30;;
20445;SDS011;10382;49.140;9.234;2024-03-02T02:12:55;18.30;;;11.70;;
20445;SDS011;10382;49.140;9.234;2024-03-02T02:15:22;19.30;;;11.63;;
20445;SDS011;10382;49.140;9.234;2024-03-02T02:17:53;17.80;;;10.20;;
20445;SDS011;10382;49.140;9.234;2024-03-02T02:20:21;16.17;;;10.33;;
20445;SDS011;10382;49.140;9.234;2024-03-02T02:22:57;17.17;;;10.47;;
20445;SDS011;10382;49.140;9.234;2024-03-02T02:25:25;13.93;;;10.00;;
20445;SDS011;10382;49.140;9.234;2024-03-02T02:27:52;16.23;;;11.30;;
20445;SDS011;10382;49.140;9.234;2024-03-02T02:30:19;16.77;;;10.13;;
20445;SDS011;10382;49.140;9.234;2024-03-02T02:32:48;17.13;;;11.87;;
20445;SDS011;10382;49.140;9.234;2024-03-02T02:35:15;18.17;;;11.30;;
20445;SDS011;10382;49.140;9.234;2024-03-02T02:37:42;18.20;;;10.87;;
20445;SDS011;10382;49.140;9.234;2024-03-02T02:40:11;14.27;;;9.80;;
20445;SDS011;10382;49.140;9.234;2024-03-02T02:42:39;16.90;;;11.17;;
20445;SDS011;10382;49.140;9.234;2024-03-02T02:45:06;17.50;;;11.37;;
20445;SDS011;10382;49.140;9.234;2024-03-02T02:47:34;14.07;;;10.00;;
20445;SDS011;10382;49.140;9.234;2024-03-02T02:50:01;17.13;;;11.10;;
20445;SDS011;10382;49.140;9.234;2024-03-02T02:52:32;13.27;;;10.50;;
20445;SDS011;10382;49.140;9.234;2024-03-02T02:55:01;12.40;;;9.13;;
20445;SDS011;10382;49.140;9.234;2024-03-02T02:57:33;16.30;;;11.50;;
20445;SDS011;10382;49.140;9.234;2024-03-02T03:00:03;17.13;;;10.77;;
20445;SDS011;10382;49.140;9.234;2024-03-02T03:02:35;15.37;;;10.70;;
20445;SDS011;10382;49.140;9.234;2024-03-02T03:05:02;16.50;;;10.03;;
20445;SDS011;10382;49.140;9.234;2024-03-02T03:07:31;16.37;;;11.23;;
20445;SDS011;10382;49.140;9.234;2024-03-02T03:09:58;19.50;;;11.20;;
20445;SDS011;10382;49.140;9.234;2024-03-02T03:12:24;15.50;;;9.57;;
20445;SDS011;10382;49.140;9.234;2024-03-02T03:14:53;16.30;;;10.57;;
20445;SDS011;10382;49.140;9.234;2024-03-02T03:17:20;14.60;;;9.77;;
20445;SDS011;10382;49.140;9.234;2024-03-02T03:19:48;19.60;;;10.27;;
20445;SDS011;10382;49.140;9.234;2024-03-02T03:22:15;18.00;;;10.93;;
20445;SDS011;10382;49.140;9.234;2024-03-02T03:24:41;24.43;;;10.57;;
20445;SDS011;10382;49.140;9.234;2024-03-02T03:27:09;16.93;;;10.50;;
20445;SDS011;10382;49.140;9.234;2024-03-02T03:29:36;19.80;;;9.90;;
20445;SDS011;10382;49.140;9.234;2024-03-02T03:32:05;15.67;;;9.70;;
20445;SDS011;10382;49.140;9.234;2024-03-02T03:34:32;14.00;;;10.30;;
20445;SDS011;10382;49.140;9.234;2024-03-02T03:36:59;21.33;;;10.90;;
20445;SDS011;10382;49.140;9.234;2024-03-02T03:39:26;20.10;;;10.40;;
20445;SDS011;10382;49.140;9.234;2024-03-02T03:41:53;16.37;;;10.10;;
20445;SDS011;10382;49.140;9.234;2024-03-02T03:44:20;14.63;;;10.23;;
20445;SDS011;10382;49.140;9.234;2024-03-02T03:46:47;15.20;;;10.83;;
20445;SDS011;10382;49.140;9.234;2024-03-02T03:49:15;17.67;;;11.50;;
20445;SDS011;10382;49.140;9.234;2024-03-02T03:51:42;15.97;;;10.17;;
20445;SDS011;10382;49.140;9.234;2024-03-02T03:54:09;17.43;;;11.50;;
20445;SDS011;10382;49.140;9.234;2024-03-02T03:56:36;23.27;;;12.97;;
20445;SDS011;10382;49.140;9.234;2024-03-02T03:59:03;18.70;;;9.80;;
20445;SDS011;10382;49.140;9.234;2024-03-02T04:01:30;19.73;;;12.30;;
20445;SDS011;10382;49.140;9.234;2024-03-02T04:03:58;15.23;;;10.43;;
20445;SDS011;10382;49.140;9.234;2024-03-02T04:06:28;20.50;;;11.33;;
20445;SDS011;10382;49.140;9.234;2024-03-02T04:08:55;13.97;;;9.77;;
20445;SDS011;10382;49.140;9.234;2024-03-02T04:11:22;18.20;;;10.57;;
20445;SDS011;10382;49.140;9.234;2024-03-02T04:13:48;15.30;;;9.20;;
20445;SDS011;10382;49.140;9.234;2024-03-02T04:16:15;15.40;;;10.30;;
20445;SDS011;10382;49.140;9.234;2024-03-02T04:18:42;14.77;;;10.90;;
20445;SDS011;10382;49.140;9.234;2024-03-02T04:21:09;15.50;;;9.73;;
20445;SDS011;10382;49.140;9.234;2024-03-02T04:23:37;16.00;;;10.57;;
20445;SDS011;10382;49.140;9.234;2024-03-02T04:26:04;18.07;;;11.53;;
20445;SDS011;10382;49.140;9.234;2024-03-02T04:28:31;20.43;;;11.20;;
20445;SDS011;10382;49.140;9.234;2024-03-02T04:30:58;16.07;;;12.40;;
20445;SDS011;10382;49.140;9.234;2024-03-02T04:33:25;17.83;;;11.63;;
20445;SDS011;10382;49.140;9.234;2024-03-02T04:35:51;17.73;;;11.63;;
20445;SDS011;10382;49.140;9.234;2024-03-02T04:38:18;19.90;;;12.40;;
20445;SDS011;10382;49.140;9.234;2024-03-02T04:40:46;18.20;;;11.60;;
20445;SDS011;10382;49.140;9.234;2024-03-02T04:43:13;12.57;;;9.40;;
20445;SDS011;10382;49.140;9.234;2024-03-02T04:45:41;15.57;;;11.20;;
20445;SDS011;10382;49.140;9.234;2024-03-02T04:48:08;16.60;;;10.90;;
20445;SDS011;10382;49.140;9.234;2024-03-02T04:50:35;20.07;;;12.07;;
20445;SDS011;10382;49.140;9.234;2024-03-02T04:53:02;18.17;;;11.60;;
20445;SDS011;10382;49.140;9.234;2024-03-02T04:55:29;11.90;;;8.80;;
20445;SDS011;10382;49.140;9.234;2024-03-02T04:58:23;14.73;;;10.23;;
20445;SDS011;10382;49.140;9.234;2024-03-02T05:00:50;16.37;;;11.50;;
20445;SDS011;10382;49.140;9.234;2024-03-02T05:03:16;16.00;;;10.50;;
20445;SDS011;10382;49.140;9.234;2024-03-02T05:05:43;19.63;;;11.23;;
20445;SDS011;10382;49.140;9.234;2024-03-02T05:08:10;16.93;;;11.20;;
20445;SDS011;10382;49.140;9.234;2024-03-02T05:10:37;19.57;;;12.20;;
20445;SDS011;10382;49.140;9.234;2024-03-02T05:13:04;18.40;;;11.30;;
20445;SDS011;10382;49.140;9.234;2024-03-02T05:15:32;23.57;;;12.13;;
20445;SDS011;10382;49.140;9.234;2024-03-02T05:17:59;20.63;;;11.63;;
20445;SDS011;10382;49.140;9.234;2024-03-02T05:20:27;20.33;;;11.33;;
20445;SDS011;10382;49.140;9.234;2024-03-02T05:22:54;19.50;;;12.50;;
20445;SDS011;10382;49.140;9.234;2024-03-02T05:25:21;17.20;;;11.20;;
20445;SDS011;10382;49.140;9.234;2024-03-02T05:27:48;21.60;;;12.40;;
20445;SDS011;10382;49.140;9.234;2024-03-02T05:30:15;15.47;;;9.90;;
20445;SDS011;10382;49.140;9.234;2024-03-02T05:32:43;18.77;;;11.23;;
20445;SDS011;10382;49.140;9.234;2024-03-02T05:35:10;19.97;;;11.67;;
20445;SDS011;10382;49.140;9.234;2024-03-02T05:37:37;18.40;;;11.93;;
20445;SDS011;10382;49.140;9.234;2024-03-02T05:40:05;20.20;;;12.27;;
20445;SDS011;10382;49.140;9.234;2024-03-02T05:42:32;26.07;;;11.37;;
20445;SDS011;10382;49.140;9.234;2024-03-02T05:45:00;28.10;;;13.20;;
20445;SDS011;10382;49.140;9.234;2024-03-02T05:47:27;19.93;;;12.23;;
20445;SDS011;10382;49.140;9.234;2024-03-02T05:49:55;18.90;;;12.17;;
20445;SDS011;10382;49.140;9.234;2024-03-02T05:52:22;18.30;;;11.63;;
20445;SDS011;10382;49.140;9.234;2024-03-02T05:54:49;20.93;;;12.77;;
20445;SDS011;10382;49.140;9.234;2024-03-02T05:57:15;17.37;;;11.20;;
20445;SDS011;10382;49.140;9.234;2024-03-02T05:59:56;21.60;;;13.70;;
20445;SDS011;10382;49.140;9.234;2024-03-02T06:02:23;25.37;;;12.80;;
20445;SDS011;10382;49.140;9.234;2024-03-02T06:04:51;18.53;;;12.30;;
20445;SDS011;10382;49.140;9.234;2024-03-02T06:07:21;21.70;;;13.00;;
20445;SDS011;10382;49.140;9.234;2024-03-02T06:09:48;21.57;;;13.40;;
20445;SDS011;10382;49.140;9.234;2024-03-02T06:12:17;20.50;;;11.57;;
20445;SDS011;10382;49.140;9.234;2024-03-02T06:14:44;22.87;;;14.33;;
20445;SDS011;10382;49.140;9.234;2024-03-02T06:17:10;23.50;;;12.70;;
20445;SDS011;10382;49.140;9.234;2024-03-02T06:19:37;19.63;;;12.20;;
20445;SDS011;10382;49.140;9.234;2024-03-02T06:22:05;19.87;;;13.67;;
20445;SDS011;10382;49.140;9.234;2024-03-02T06:24:35;23.43;;;14.43;;
20445;SDS011;10382;49.140;9.234;2024-03-02T06:27:02;20.13;;;13.03;;
20445;SDS011;10382;49.140;9.234;2024-03-02T06:29:32;23.40;;;12.90;;
20445;SDS011;10382;49.140;9.234;2024-03-02T06:31:58;21.10;;;13.80;;
20445;SDS011;10382;49.140;9.234;2024-03-02T06:34:26;19.13;;;12.17;;
20445;SDS011;10382;49.140;9.234;2024-03-02T06:36:52;18.60;;;12.93;;
20445;SDS011;10382;49.140;9.234;2024-03-02T06:39:19;19.57;;;11.73;;
20445;SDS011;10382;49.140;9.234;2024-03-02T06:41:47;22.47;;;12.50;;
20445;SDS011;10382;49.140;9.234;2024-03-02T06:44:14;25.63;;;13.60;;
20445;SDS011;10382;49.140;9.234;2024-03-02T06:46:41;28.47;;;14.40;;
20445;SDS011;10382;49.140;9.234;2024-03-02T06:49:08;19.87;;;12.50;;
20445;SDS011;10382;49.140;9.234;2024-03-02T06:51:35;21.47;;;13.60;;
20445;SDS011;10382;49.140;9.234;2024-03-02T06:54:02;18.67;;;12.03;;
20445;SDS011;10382;49.140;9.234;2024-03-02T06:56:29;23.20;;;12.20;;
20445;SDS011;10382;49.140;9.234;2024-03-02T06:58:59;22.73;;;12.57;;
20445;SDS011;10382;49.140;9.234;2024-03-02T07:01:26;18.20;;;12.23;;
20445;SDS011;10382;49.140;9.234;2024-03-02T07:03:53;22.37;;;12.50;;
20445;SDS011;10382;49.140;9.234;2024-03-02T07:06:20;16.50;;;12.10;;
20445;SDS011;10382;49.140;9.234;2024-03-02T07:08:46;23.20;;;12.13;;
20445;SDS011;10382;49.140;9.234;2024-03-02T07:11:13;18.10;;;12.13;;
20445;SDS011;10382;49.140;9.234;2024-03-02T07:13:40;16.43;;;11.77;;
20445;SDS011;10382;49.140;9.234;2024-03-02T07:16:08;16.90;;;11.70;;
20445;SDS011;10382;49.140;9.234;2024-03-02T07:18:55;19.47;;;13.33;;
20445;SDS011;10382;49.140;9.234;2024-03-02T07:21:22;14.20;;;10.77;;
20445;SDS011;10382;49.140;9.234;2024-03-02T07:23:49;18.07;;;11.47;;
20445;SDS011;10382;49.140;9.234;2024-03-02T07:26:16;15.70;;;11.27;;
20445;SDS011;10382;49.140;9.234;2024-03-02T07:28:44;16.87;;;11.73;;
20445;SDS011;10382;49.140;9.234;2024-03-02T07:31:14;16.43;;;11.10;;
20445;SDS011;10382;49.140;9.234;2024-03-02T07:33:43;15.40;;;12.47;;
20445;SDS011;10382;49.140;9.234;2024-03-02T07:36:10;16.87;;;10.87;;
20445;SDS011;10382;49.140;9.234;2024-03-02T07:38:37;22.13;;;13.37;;
20445;SDS011;10382;49.140;9.234;2024-03-02T07:41:05;15.93;;;12.27;;
20445;SDS011;10382;49.140;9.234;2024-03-02T07:43:32;20.50;;;13.30;;
20445;SDS011;10382;49.140;9.234;2024-03-02T07:45:59;20.37;;;13.10;;
20445;SDS011;10382;49.140;9.234;2024-03-02T07:48:29;22.33;;;14.50;;
20445;SDS011;10382;49.140;9.234;2024-03-02T07:50:56;20.20;;;15.33;;
20445;SDS011;10382;49.140;9.234;2024-03-02T07:53:23;16.53;;;11.40;;
20445;SDS011;10382;49.140;9.234;2024-03-02T07:55:50;24.20;;;13.83;;
20445;SDS011;10382;49.140;9.234;2024-03-02T07:58:17;18.30;;;11.63;;
20445;SDS011;10382;49.140;9.234;2024-03-02T08:00:44;19.00;;;13.40;;
20445;SDS011;10382;49.140;9.234;2024-03-02T08:03:11;18.80;;;13.20;;
20445;SDS011;10382;49.140;9.234;2024-03-02T08:05:40;20.27;;;14.03;;
20445;SDS011;10382;49.140;9.234;2024-03-02T08:08:07;18.80;;;13.03;;
20445;SDS011;10382;49.140;9.234;2024-03-02T08:10:33;17.80;;;12.77;;
20445;SDS011;10382;49.140;9.234;2024-03-02T08:13:00;15.27;;;10.40;;
20445;SDS011;10382;49.140;9.234;2024-03-02T08:15:28;15.70;;;10.03;;
20445;SDS011;10382;49.140;9.234;2024-03-02T08:17:54;11.73;;;8.37;;
20445;SDS011;10382;49.140;9.234;2024-03-02T08:20:21;13.50;;;8.90;;
20445;SDS011;10382;49.140;9.234;2024-03-02T08:22:50;11.00;;;8.23;;
20445;SDS011;10382;49.140;9.234;2024-03-02T08:25:20;12.70;;;8.70;;
20445;SDS011;10382;49.140;9.234;2024-03-02T08:27:47;11.77;;;8.20;;
20445;SDS011;10382;49.140;9.234;2024-03-02T08:30:14;11.23;;;8.27;;
20445;SDS011;10382;49.140;9.234;2024-03-02T08:32:41;17.63;;;8.50;;
20445;SDS011;10382;49.140;9.234;2024-03-02T08:35:08;11.83;;;6.97;;
20445;SDS011;10382;49.140;9.234;2024-03-02T08:37:34;12.87;;;8.77;;
20445;SDS011;10382;49.140;9.234;2024-03-02T08:40:06;10.90;;;7.43;;
20445;SDS011;10382;49.140;9.234;2024-03-02T08:42:34;11.90;;;8.33;;
20445;SDS011;10382;49.140;9.234;2024-03-02T08:45:01;8.73;;;7.17;;
20445;SDS011;10382;49.140;9.234;2024-03-02T08:47:28;10.73;;;7.10;;
20445;SDS011;10382;49.140;9.234;2024-03-02T08:49:55;10.73;;;8.00;;
20445;SDS011;10382;49.140;9.234;2024-03-02T08:52:22;10.40;;;7.50;;
20445;SDS011;10382;49.140;9.234;2024-03-02T08:54:49;10.13;;;7.00;;
20445;SDS011;10382;49.140;9.234;2024-03-02T08:57:17;10.67;;;7.03;;
20445;SDS011;10382;49.140;9.234;2024-03-02T08:59:44;16.50;;;9.40;;
20445;SDS011;10382;49.140;9.234;2024-03-02T09:02:11;8.60;;;7.27;;
20445;SDS011;10382;49.140;9.234;2024-03-02T09:04:38;14.33;;;8.70;;
20445;SDS011;10382;49.140;9.234;2024-03-02T09:07:05;14.73;;;9.90;;
20445;SDS011;10382;49.140;9.234;2024-03-02T09:09:32;14.27;;;9.03;;
20445;SDS011;10382;49.140;9.234;2024-03-02T09:11:59;12.93;;;9.57;;
20445;SDS011;10382;49.140;9.234;2024-03-02T09:14:28;12.23;;;8.67;;
20445;SDS011;10382;49.140;9.234;2024-03-02T09:16:55;12.03;;;8.97;;
20445;SDS011;10382;49.140;9.234;2024-03-02T09:19:21;8.83;;;7.50;;
20445;SDS011;10382;49.140;9.234;2024-03-02T09:21:48;10.30;;;7.40;;
20445;SDS011;10382;49.140;9.234;2024-03-02T09:24:16;9.40;;;6.50;;
20445;SDS011;10382;49.140;9.234;2024-03-02T09:26:42;12.50;;;9.33;;
20445;SDS011;10382;49.140;9.234;2024-03-02T09:29:09;6.13;;;5.53;;
20445;SDS011;10382;49.140;9.234;2024-03-02T09:31:40;6.67;;;5.93;;
20445;SDS011;10382;49.140;9.234;2024-03-02T09:34:07;7.37;;;6.17;;
20445;SDS011;10382;49.140;9.234;2024-03-02T09:36:34;9.03;;;7.00;;
20445;SDS011;10382;49.140;9.234;2024-03-02T09:39:01;7.13;;;5.67;;
20445;SDS011;10382;49.140;9.234;2024-03-02T09:41:29;5.77;;;5.17;;
20445;SDS011;10382;49.140;9.234;2024-03-02T09:43:55;7.50;;;5.70;;
20445;SDS011;10382;49.140;9.234;2024-03-02T09:46:23;6.00;;;5.50;;
20445;SDS011;10382;49.140;9.234;2024-03-02T09:48:52;6.77;;;5.07;;
20445;SDS011;10382;49.140;9.234;2024-03-02T09:51:19;12.10;;;6.60;;
20445;SDS011;10382;49.140;9.234;2024-03-02T09:53:46;7.93;;;5.10;;
20445;SDS011;10382;49.140;9.234;2024-03-02T09:56:13;8.83;;;5.47;;
20445;SDS011;10382;49.140;9.234;2024-03-02T09:58:43;13.43;;;7.53;;
20445;SDS011;10382;49.140;9.234;2024-03-02T10:01:10;13.73;;;6.97;;
20445;SDS011;10382;49.140;9.234;2024-03-02T10:03:37;23.07;;;6.20;;
20445;SDS011;10382;49.140;9.234;2024-03-02T10:06:22;9.20;;;5.80;;
20445;SDS011;10382;49.140;9.234;2024-03-02T10:08:49;7.90;;;5.20;;
20445;SDS011;10382;49.140;9.234;2024-03-02T10:11:26;9.70;;;5.43;;
20445;SDS011;10382;49.140;9.234;2024-03-02T10:14:04;9.30;;;6.40;;
20445;SDS011;10382;49.140;9.234;2024-03-02T10:16:33;9.60;;;5.57;;
20445;SDS011;10382;49.140;9.234;2024-03-02T10:19:17;10.93;;;5.90;;
20445;SDS011;10382;49.140;9.234;2024-03-02T10:21:46;12.77;;;6.70;;
20445;SDS011;10382;49.140;9.234;2024-03-02T10:24:14;8.77;;;5.20;;
20445;SDS011;10382;49.140;9.234;2024-03-02T10:26:41;13.03;;;7.07;;
20445;SDS011;10382;49.140;9.234;2024-03-02T10:29:08;7.57;;;4.80;;
20445;SDS011;10382;49.140;9.234;2024-03-02T10:31:36;14.30;;;7.43;;
20445;SDS011;10382;49.140;9.234;2024-03-02T10:34:04;13.33;;;6.63;;
20445;SDS011;10382;49.140;9.234;2024-03-02T10:36:31;15.40;;;7.27;;
20445;SDS011;10382;49.140;9.234;2024-03-02T10:39:01;11.63;;;5.97;;
20445;SDS011;10382;49.140;9.234;2024-03-02T10:41:29;12.80;;;6.80;;
20445;SDS011;10382;49.140;9.234;2024-03-02T10:43:59;34.40;;;14.43;;
20445;SDS011;10382;49.140;9.234;2024-03-02T10:46:29;16.50;;;5.87;;
20445;SDS011;10382;49.140;9.234;2024-03-02T10:48:57;11.23;;;5.27;;
20445;SDS011;10382;49.140;9.234;2024-03-02T10:51:25;10.33;;;5.27;;
20445;SDS011;10382;49.140;9.234;2024-03-02T10:53:53;9.87;;;4.67;;
20445;SDS011;10382;49.140;9.234;2024-03-02T10:56:28;9.40;;;5.03;;
20445;SDS011;10382;49.140;9.234;2024-03-02T10:58:58;9.17;;;4.87;;
20445;SDS011;10382;49.140;9.234;2024-03-02T11:01:29;10.83;;;5.47;;
20445;SDS011;10382;49.140;9.234;2024-03-02T11:03:59;8.43;;;4.40;;
20445;SDS011;10382;49.140;9.234;2024-03-02T11:06:28;9.30;;;5.07;;
20445;SDS011;10382;49.140;9.234;2024-03-02T11:08:58;7.50;;;4.07;;
20445;SDS011;10382;49.140;9.234;2024-03-02T11:11:36;12.17;;;6.10;;
20445;SDS011;10382;49.140;9.234;2024-03-02T11:14:07;8.70;;;4.40;;
20445;SDS011;10382;49.140;9.234;2024-03-02T11:16:39;10.60;;;5.13;;
20445;SDS011;10382;49.140;9.234;2024-03-02T11:19:07;11.00;;;5.33;;
20445;SDS011;10382;49.140;9.234;2024-03-02T11:21:36;9.23;;;4.73;;
20445;SDS011;10382;49.140;9.234;2024-03-02T11:27:00;7.23;;;3.50;;
20445;SDS011;10382;49.140;9.234;2024-03-02T11:29:43;9.30;;;3.60;;
20445;SDS011;10382;49.140;9.234;2024-03-02T11:32:19;8.10;;;4.50;;
20445;SDS011;10382;49.140;9.234;2024-03-02T11:34:49;6.07;;;3.63;;
20445;SDS011;10382;49.140;9.234;2024-03-02T11:37:17;8.57;;;4.20;;
20445;SDS011;10382;49.140;9.234;2024-03-02T11:39:45;10.43;;;5.37;;
20445;SDS011;10382;49.140;9.234;2024-03-02T11:42:14;6.60;;;3.53;;
20445;SDS011;10382;49.140;9.234;2024-03-02T11:44:42;8.53;;;4.60;;
20445;SDS011;10382;49.140;9.234;2024-03-02T11:47:11;16.30;;;7.83;;
20445;SDS011;10382;49.140;9.234;2024-03-02T11:49:41;9.70;;;4.57;;
20445;SDS011;10382;49.140;9.234;2024-03-02T11:52:10;12.33;;;6.13;;
20445;SDS011;10382;49.140;9.234;2024-03-02T11:54:38;11.50;;;5.70;;
20445;SDS011;10382;49.140;9.234;2024-03-02T11:57:11;7.30;;;3.97;;
20445;SDS011;10382;49.140;9.234;2024-03-02T11:59:40;9.10;;;4.50;;
20445;SDS011;10382;49.140;9.234;2024-03-02T12:02:07;8.60;;;4.30;;
20445;SDS011;10382;49.140;9.234;2024-03-02T12:04:40;9.20;;;4.40;;
20445;SDS011;10382;49.140;9.234;2024-03-02T12:07:10;6.30;;;3.30;;
20445;SDS011;10382;49.140;9.234;2024-03-02T12:09:37;12.13;;;5.60;;
20445;SDS011;10382;49.140;9.234;2024-03-02T12:12:04;6.47;;;3.27;;
20445;SDS011;10382;49.140;9.234;2024-03-02T12:14:32;5.17;;;3.37;;
20445;SDS011;10382;49.140;9.234;2024-03-02T12:17:01;5.60;;;2.90;;
20445;SDS011;10382;49.140;9.234;2024-03-02T12:19:28;8.20;;;3.90;;
20445;SDS011;10382;49.140;9.234;2024-03-02T12:22:03;3.87;;;2.30;;
20445;SDS011;10382;49.140;9.234;2024-03-02T12:24:32;5.73;;;3.40;;
20445;SDS011;10382;49.140;9.234;2024-03-02T12:26:59;2.83;;;2.07;;
20445;SDS011;10382;49.140;9.234;2024-03-02T12:29:27;2.07;;;1.70;;
20445;SDS011;10382;49.140;9.234;2024-03-02T12:31:55;2.83;;;2.10;;
20445;SDS011;10382;49.140;9.234;2024-03-02T12:34:23;14.03;;;5.70;;
20445;SDS011;10382;49.140;9.234;2024-03-02T12:36:51;3.90;;;2.43;;
20445;SDS011;10382;49.140;9.234;2024-03-02T12:39:18;2.00;;;1.47;;
20445;SDS011;10382;49.140;9.234;2024-03-02T12:41:48;4.00;;;2.63;;
20445;SDS011;10382;49.140;9.234;2024-03-02T12:44:16;5.40;;;2.83;;
20445;SDS011;10382;49.140;9.234;2024-03-02T12:46:43;8.30;;;5.10;;
20445;SDS011;10382;49.140;9.234;2024-03-02T12:49:11;5.07;;;3.07;;
20445;SDS011;10382;49.140;9.234;2024-03-02T12:51:40;8.27;;;4.53;;
20445;SDS011;10382;49.140;9.234;2024-03-02T12:54:08;6.60;;;3.70;;
20445;SDS011;10382;49.140;9.234;2024-03-02T12:56:35;8.27;;;4.43;;
20445;SDS011;10382;49.140;9.234;2024-03-02T12:59:03;6.90;;;3.50;;
20445;SDS011;10382;49.140;9.234;2024-03-02T13:01:31;1.97;;;1.37;;
20445;SDS011;10382;49.140;9.234;2024-03-02T13:03:59;4.20;;;2.63;;
20445;SDS011;10382;49.140;9.234;2024-03-02T13:06:27;11.40;;;5.70;;
20445;SDS011;10382;49.140;9.234;2024-03-02T13:08:55;5.10;;;2.60;;
20445;SDS011;10382;49.140;9.234;2024-03-02T13:11:22;6.30;;;3.20;;
20445;SDS011;10382;49.140;9.234;2024-03-02T13:13:50;5.53;;;2.93;;
20445;SDS011;10382;49.140;9.234;2024-03-02T13:16:18;4.40;;;2.60;;
20445;SDS011;10382;49.140;9.234;2024-03-02T13:18:46;6.43;;;2.43;;
20445;SDS011;10382;49.140;9.234;2024-03-02T13:21:16;6.40;;;2.90;;
20445;SDS011;10382;49.140;9.234;2024-03-02T13:23:51;7.07;;;3.50;;
20445;SDS011;10382;49.140;9.234;2024-03-02T13:26:19;6.17;;;3.03;;
20445;SDS011;10382;49.140;9.234;2024-03-02T13:28:46;5.00;;;3.00;;
20445;SDS011;10382;49.140;9.234;2024-03-02T13:31:13;6.50;;;3.20;;
20445;SDS011;10382;49.140;9.234;2024-03-02T13:33:40;10.07;;;2.83;;
20445;SDS011;10382;49.140;9.234;2024-03-02T13:36:07;7.20;;;3.43;;
20445;SDS011;10382;49.140;9.234;2024-03-02T13:38:34;13.43;;;5.20;;
20445;SDS011;10382;49.140;9.234;2024-03-02T13:41:01;4.47;;;2.60;;
20445;SDS011;10382;49.140;9.234;2024-03-02T13:43:30;3.30;;;2.27;;
20445;SDS011;10382;49.140;9.234;2024-03-02T13:45:57;3.10;;;2.00;;
20445;SDS011;10382;49.140;9.234;2024-03-02T13:48:25;7.30;;;3.40;;
20445;SDS011;10382;49.140;9.234;2024-03-02T13:50:52;4.53;;;2.70;;
20445;SDS011;10382;49.140;9.234;2024-03-02T13:53:18;4.70;;;2.77;;
20445;SDS011;10382;49.140;9.234;2024-03-02T13:55:46;5.40;;;2.80;;
20445;SDS011;10382;49.140;9.234;2024-03-02T13:58:13;6.30;;;2.40;;
20445;SDS011;10382;49.140;9.234;2024-03-02T14:00:41;5.40;;;3.10;;
20445;SDS011;10382;49.140;9.234;2024-03-02T14:03:08;14.40;;;6.90;;
20445;SDS011;10382;49.140;9.234;2024-03-02T14:05:35;6.57;;;3.13;;
20445;SDS011;10382;49.140;9.234;2024-03-02T14:08:02;6.67;;;3.23;;
20445;SDS011;10382;49.140;9.234;2024-03-02T14:10:29;4.13;;;2.13;;
20445;SDS011;10382;49.140;9.234;2024-03-02T14:12:56;8.33;;;3.70;;
20445;SDS011;10382;49.140;9.234;2024-03-02T14:15:23;6.93;;;2.67;;
20445;SDS011;10382;49.140;9.234;2024-03-02T14:17:51;4.43;;;2.20;;
20445;SDS011;10382;49.140;9.234;2024-03-02T14:20:18;5.27;;;2.60;;
20445;SDS011;10382;49.140;9.234;2024-03-02T14:22:48;9.40;;;2.70;;
20445;SDS011;10382;49.140;9.234;2024-03-02T14:25:15;6.60;;;3.40;;
20445;SDS011;10382;49.140;9.234;2024-03-02T14:27:42;8.93;;;4.53;;
20445;SDS011;10382;49.140;9.234;2024-03-02T14:30:10;10.70;;;4.10;;
20445;SDS011;10382;49.140;9.234;2024-03-02T14:32:38;5.60;;;3.13;;
20445;SDS011;10382;49.140;9.234;2024-03-02T14:35:07;5.87;;;2.77;;
20445;SDS011;10382;49.140;9.234;2024-03-02T14:37:36;5.20;;;3.03;;
20445;SDS011;10382;49.140;9.234;2024-03-02T14:40:04;7.97;;;3.60;;